Flight Track Log - Related Links

Times and Time Zones

All times are in EDT time to prevent confusion due to time zone crossing. See the UAL479 flight status page for this flight to view local times or setup timezone preferences in your user account.

Time Position Orientation Groundspeed Altitude Reporting Facility
EDT Latitude Longitude Course Direction KTS MPH feet Rate Location/Type
Sun 10:42:50 AM 41.9667 -87.8667 189° South 156 180 2,200  Level Chicago TRACON
Sun 10:43:44 AM 41.9333 -87.8167 132° Southeast 213 245 4,300 1,526 Climbing Chicago TRACON
Sun 10:44:44 AM 41.8667 -87.8000 169° South 231 266 5,100 645 Climbing Chicago TRACON
Sun 10:45:00 AM 41.6409 -88.1582 191° South  Level Estimated
Sun 10:45:45 AM 41.8000 -87.7833 169° South 234 269 5,600  Level Chicago TRACON
Sun 10:46:00 AM 41.5557 -88.2206 189° South  Level Estimated
Sun 10:47:00 AM 41.4704 -88.2829 197° South  Level Estimated
Sun 10:48:00 AM 41.3851 -88.3451 189° South  Level Estimated
Sun 10:48:01 AM 41.6617 -87.8647 204° Southwest 258 297 12,300  Level Chicago Center
Sun 10:49:02 AM 41.5939 -87.9092 206° Southwest 269 310 14,900 2,390 Climbing Chicago Center
Sun 10:50:04 AM 41.5214 -87.9558 206° Southwest 286 329 17,200 2,049 Climbing Chicago Center
Sun 10:51:05 AM 41.4447 -88.0058 206° Southwest 312 359 19,100 1,610 Climbing Chicago Center
Sun 10:52:07 AM 41.3436 -88.0517 199° South 356 410 20,500 1,659 Climbing Chicago Center
Sun 10:53:08 AM 41.2428 -88.0861 194° South 375 432 22,500 1,805 Climbing Chicago Center
Sun 10:54:10 AM 41.1392 -88.1156 192° South 379 436 24,200 1,512 Climbing Chicago Center
Sun 10:55:11 AM 41.0314 -88.1472 192° South 392 451 25,600 1,415 Climbing Chicago Center
Sun 10:56:13 AM 40.9219 -88.1783 192° South 401 461 27,100 1,610 Climbing Chicago Center
Sun 10:57:14 AM 40.7883 -88.2167 192° South 409 471 28,900 1,415 Climbing Chicago Center
Sun 10:58:16 AM 40.6758 -88.2486 192° South 414 476 30,000 537 Climbing Chicago Center
Sun 10:59:17 AM 40.5592 -88.2794 191° South 423 487 30,000  Level Chicago Center
Sun 11:00:19 AM 40.4400 -88.3161 193° South 437 503 30,000  Level Chicago Center
Sun 11:01:20 AM 40.3242 -88.3539 194° South 433 498 30,000  Level Chicago Center
Sun 11:02:22 AM 40.2178 -88.4225 206° Southwest 428 493 30,000  Level Chicago Center
Sun 11:03:22 AM 40.1239 -88.4900 209° Southwest 422 486 30,000  Level Kansas City Center
Sun 11:04:23 AM 39.9958 -88.5856 210° Southwest 431 496 30,000  Level Kansas City Center
Sun 11:05:23 AM 39.8894 -88.6631 209° Southwest 435 501 30,000  Level Kansas City Center
Sun 11:06:27 AM 39.7847 -88.7392 209° Southwest 432 497 30,000 -48 Level Kansas City Center
Sun 11:07:28 AM 39.6783 -88.8172 209° Southwest 435 501 29,900 -492 Descending Kansas City Center
Sun 11:08:29 AM 39.5733 -88.8939 209° Southwest 433 498 29,000 -864 Descending Kansas City Center
Sun 11:09:33 AM 39.4672 -88.9703 209° Southwest 434 499 28,100 -480 Descending Kansas City Center
Sun 11:10:34 AM 39.3583 -89.0492 209° Southwest 432 497 28,000 -50 Descending Kansas City Center
Sun 11:11:34 AM 39.2542 -89.1247 209° Southwest 431 496 28,000  Level Kansas City Center
Sun 11:12:38 AM 39.1322 -89.2114 209° Southwest 425 489 28,000  Level Kansas City Center
Sun 11:13:40 AM 39.0306 -89.2856 210° Southwest 421 484 28,000  Level Kansas City Center
Sun 11:14:41 AM 38.9200 -89.3644 209° Southwest 423 487 28,000  Level Kansas City Center
Sun 11:15:42 AM 38.8189 -89.4364 209° Southwest 418 481 28,000  Level Kansas City Center
Sun 11:16:45 AM 38.7153 -89.5092 209° Southwest 421 484 28,000  Level Kansas City Center
Sun 11:17:47 AM 38.6053 -89.5872 209° Southwest 421 484 28,000  Level Kansas City Center
Sun 11:18:51 AM 38.5011 -89.6594 208° Southwest 422 486 28,000  Level Kansas City Center
Sun 11:19:51 AM 38.4108 -89.7217 208° Southwest 419 482 28,000  Level Kansas City Center
Sun 11:20:54 AM 38.2864 -89.8103 209° Southwest 423 487 28,000  Level Kansas City Center
Sun 11:21:55 AM 38.1839 -89.8822 209° Southwest 420 483 28,000  Level Kansas City Center
Sun 11:22:56 AM 38.0747 -89.9586 209° Southwest 416 479 28,000  Level Kansas City Center
Sun 11:24:00 AM 37.9722 -90.0278 208° Southwest 417 480 28,000  Level Kansas City Center
Sun 11:25:00 AM 37.8708 -90.0983 209° Southwest 416 479 28,000  Level Kansas City Center
Sun 11:26:03 AM 37.7753 -90.1653 209° Southwest 419 482 28,000  Level Kansas City Center
Sun 11:27:04 AM 37.6714 -90.2369 209° Southwest 422 486 28,000  Level Kansas City Center
Sun 11:28:05 AM 37.5625 -90.2883 201° Southwest 416 479 28,000  Level Kansas City Center
Sun 11:29:08 AM 37.4292 -90.3517 201° Southwest 423 487 28,000  Level Kansas City Center
Sun 11:29:44 AM 37.3672 -90.3803 200° South 430 495 28,000 -188 Level Memphis Center
Sun 11:30:44 AM 37.2589 -90.4325 201° Southwest 430 495 27,700 -650 Descending Memphis Center
Sun 11:31:44 AM 37.1506 -90.4819 200° South 430 495 26,700 -850 Descending Memphis Center
Sun 11:32:44 AM 37.0400 -90.5336 200° South 430 495 26,000 -350 Descending Memphis Center
Sun 11:33:44 AM 36.9358 -90.5828 201° Southwest 420 483 26,000  Level Memphis Center
Sun 11:34:44 AM 36.8294 -90.6292 199° South 414 476 26,000  Level Memphis Center
Sun 11:35:44 AM 36.7253 -90.6781 201° Southwest 409 471 26,000  Level Memphis Center
Sun 11:36:44 AM 36.6189 -90.7267 200° South 409 471 26,000  Level Memphis Center
Sun 11:37:44 AM 36.5144 -90.7753 201° Southwest 409 471 26,000  Level Memphis Center
Sun 11:38:45 AM 36.4058 -90.8236 200° South 409 471 26,000  Level Memphis Center
Sun 11:39:44 AM 36.3036 -90.8719 201° Southwest 409 471 26,000  Level Memphis Center
Sun 11:40:44 AM 36.1950 -90.9228 201° Southwest 409 471 26,000  Level Memphis Center
Sun 11:41:44 AM 36.0883 -90.9786 203° Southwest 414 476 26,000  Level Memphis Center
Sun 11:42:44 AM 35.9858 -91.0369 205° Southwest 414 476 26,000  Level Memphis Center
Sun 11:43:44 AM 35.8811 -91.0947 204° Southwest 419 482 26,000  Level Memphis Center
Sun 11:44:44 AM 35.7767 -91.1478 202° Southwest 419 482 26,000  Level Memphis Center
Sun 11:45:44 AM 35.6803 -91.2081 207° Southwest 413 475 26,000  Level Memphis Center
Sun 11:46:44 AM 35.5756 -91.2631 203° Southwest 406 467 26,000  Level Memphis Center
Sun 11:47:44 AM 35.4625 -91.3258 204° Southwest 406 467 26,000  Level Memphis Center
Sun 11:48:44 AM 35.3683 -91.3756 203° Southwest 406 467 26,000  Level Memphis Center
Sun 11:49:44 AM 35.2739 -91.4481 212° Southwest 406 467 26,000  Level Memphis Center
Sun 11:50:44 AM 35.1772 -91.5256 213° Southwest 413 475 26,000  Level Memphis Center
Sun 11:51:44 AM 35.0825 -91.6006 213° Southwest 413 475 26,000  Level Memphis Center
Sun 11:52:44 AM 34.9839 -91.6700 210° Southwest 419 482 26,000  Level Memphis Center
Sun 11:53:44 AM 34.8622 -91.7161 197° South 419 482 26,000  Level Memphis Center
Sun 11:54:44 AM 34.7556 -91.7525 196° South 419 482 26,000  Level Memphis Center
Sun 11:55:44 AM 34.6425 -91.7908 196° South 414 476 26,000  Level Memphis Center
Sun 11:56:44 AM 34.5292 -91.8294 196° South 419 482 26,000  Level Memphis Center
Sun 11:57:44 AM 34.4203 -91.8678 196° South 419 482 26,000  Level Memphis Center
Sun 11:58:44 AM 34.3092 -91.9061 196° South 414 476 26,000  Level Memphis Center
Sun 11:59:44 AM 34.2003 -91.9444 196° South 414 476 26,000  Level Memphis Center
Sun 12:00:44 PM 34.0933 -91.9775 194° South 414 476 26,000  Level Memphis Center
Sun 12:01:44 PM 33.9989 -92.0133 197° South 409 471 26,000  Level Memphis Center
Sun 12:03:39 PM 33.7847 -92.0858 196° South 402 463 26,000  Level Fort Worth Center
Sun 12:04:39 PM 33.6758 -92.1222 196° South 402 463 26,000  Level Fort Worth Center
Sun 12:05:39 PM 33.5647 -92.1589 195° South 402 463 26,000  Level Fort Worth Center
Sun 12:06:39 PM 33.4575 -92.1928 195° South 409 471 26,000  Level Fort Worth Center
Sun 12:07:39 PM 33.3525 -92.2261 195° South 409 471 26,000  Level Fort Worth Center
Sun 12:08:39 PM 33.2497 -92.2619 196° South 398 458 26,000  Level Fort Worth Center
Sun 12:09:39 PM 33.1383 -92.2983 195° South 398 458 26,000  Level Fort Worth Center
Sun 12:10:39 PM 33.0333 -92.3317 195° South 398 458 26,000  Level Fort Worth Center
Sun 12:11:39 PM 32.9264 -92.3672 196° South 393 452 26,000  Level Fort Worth Center
Sun 12:12:39 PM 32.8336 -92.3972 195° South 393 452 26,000  Level Fort Worth Center
Sun 12:13:39 PM 32.7264 -92.4306 195° South 393 452 26,000  Level Fort Worth Center
Sun 12:16:06 PM 32.4664 -92.5172 196° South 395 455 26,000  Level Houston Center
Sun 12:17:08 PM 32.3594 -92.5503 195° South 398 458 26,000 -48 Level Houston Center
Sun 12:18:10 PM 32.2539 -92.5856 196° South 396 456 25,900 -48 Descending Houston Center
Sun 12:19:12 PM 32.1231 -92.6269 195° South 409 471 25,900 48 Level Houston Center
Sun 12:20:14 PM 32.0156 -92.6628 196° South 404 465 26,000 48 Climbing Houston Center
Sun 12:21:16 PM 31.9194 -92.7258 209° Southwest 401 461 26,000 -48 Level Houston Center
Sun 12:22:18 PM 31.8339 -92.8086 219° Southwest 398 458 25,900  Descending Houston Center
Sun 12:23:20 PM 31.7464 -92.8936 220° Southwest 405 466 26,000  Climbing Houston Center
Sun 12:24:22 PM 31.6592 -92.9786 220° Southwest 407 468 25,900 -48 Descending Houston Center
Sun 12:25:24 PM 31.5539 -93.0831 220° Southwest 412 474 25,900 48 Level Houston Center
Sun 12:26:26 PM 31.4650 -93.1658 218° Southwest 408 470 26,000 48 Climbing Houston Center
Sun 12:27:28 PM 31.3778 -93.2500 219° Southwest 408 470 26,000  Level Houston Center
Sun 12:28:30 PM 31.2886 -93.3364 220° Southwest 421 484 26,000 -194 Level Houston Center
Sun 12:29:32 PM 31.1897 -93.4289 219° Southwest 440 506 25,600 -532 Descending Houston Center
Sun 12:30:34 PM 31.0936 -93.5214 220° Southwest 447 514 24,900 -290 Descending Houston Center
Sun 12:31:36 PM 30.9786 -93.6308 219° Southwest 447 514 25,000 48 Climbing Houston Center
Sun 12:32:38 PM 30.8836 -93.7206 219° Southwest 444 511 25,000 -49 Level Houston Center
Sun 12:33:39 PM 30.7892 -93.8100 219° Southwest 442 509 24,900 -780 Descending Houston Center
Sun 12:34:41 PM 30.6950 -93.8992 219° Southwest 440 506 23,400 -1,935 Descending Houston Center
Sun 12:35:43 PM 30.6025 -93.9853 219° Southwest 433 498 20,900 -2,452 Descending Houston Center
Sun 12:36:36 PM 30.5078 -94.0739 219° Southwest 417 480 18,700 -2,095 Descending Houston Center
Sun 12:37:49 PM 30.4039 -94.1703 219° Southwest 393 452 16,500 -1,895 Descending Houston Center
Sun 12:38:49 PM 30.3286 -94.2408 219° Southwest 379 436 14,500 -1,869 Descending Houston Center
Sun 12:39:51 PM 30.2481 -94.3158 219° Southwest 374 430 12,700 -1,966 Descending Houston Center
Sun 12:40:48 PM 30.1900 -94.4092 234° Southwest 346 398 10,600 -1,373 Descending Houston Center
Sun 12:41:49 PM 30.1711 -94.5156 258° West 326 375 10,000 -293 Descending Houston Center
Sun 12:42:51 PM 30.1539 -94.6194 259° West 322 371 10,000  Level Houston Center
Sun 12:43:59 PM 30.1383 -94.7161 259° West 322 371 10,000  Level Houston Center
Sun 12:44:54 PM 30.1189 -94.8219 258° West 297 342 10,000  Level Houston Center
Sun 12:46:03 PM 30.1053 -94.9261 261° West 300 345 10,000 -49 Level Houston Center
Sun 12:46:57 PM 30.1056 -95.0144 270° West 288 331 9,900 -522 Descending Houston Center
Sun 12:47:58 PM 30.1050 -95.0992 270° West 261 300 9,000 -1,131 Descending Houston Center
Sun 12:48:59 PM 30.1067 -95.1858 271° West 261 300 7,600 -1,219 Descending Houston Center
Sun 12:50:06 PM 30.1072 -95.2800 270° West 261 300 6,400 -716 Descending Houston Center
Sun 12:51:13 PM 30.1072 -95.3686 270° West 258 297 6,000 -615 Descending Houston Center
Sun 12:52:03 PM 30.1069 -95.4394 270° West 255 293 5,200 -964 Descending Houston Center
Sun 12:53:05 PM 30.1061 -95.5242 269° West 256 295 4,200 -927 Descending Houston Center
Sun 12:54:06 PM 30.1069 -95.6036 271° West 249 287 3,300 -590 Descending Houston Center
Sun 12:55:07 PM 30.0753 -95.6703 241° Southwest 245 282 3,000 -237 Descending Houston Center
Sun 12:55:22 PM 30.0736 -95.6708 196° South 261 300 3,000  Level Houston Center
Sun 12:56:09 PM 30.0133 -95.6606 172° South 231 266 3,000  Level Houston Center
Sun 12:57:16 PM 30.0061 -95.5769 96° East 238 274 3,000 -148 Level Houston Center
Sun 12:58:11 PM 30.0061 -95.5072 90° East 237 273 2,700 -327 Descending Houston Center

Login

Don't have an account? Register now (free) for customized features, flight alerts, and more!